sensor_id;sensor_type;location;lat;lon;timestamp;P1;durP1;ratioP1;P2;durP2;ratioP2
5343;SDS011;2694;48.954;8.928;2023-05-10T00:00:26;1.40;;;0.40;;
5343;SDS011;2694;48.954;8.928;2023-05-10T00:02:53;4.88;;;0.30;;
5343;SDS011;2694;48.954;8.928;2023-05-10T00:05:20;1.50;;;0.30;;
5343;SDS011;2694;48.954;8.928;2023-05-10T00:07:47;0.60;;;0.30;;
5343;SDS011;2694;48.954;8.928;2023-05-10T00:10:14;1.30;;;0.40;;
5343;SDS011;2694;48.954;8.928;2023-05-10T00:12:41;0.80;;;0.40;;
5343;SDS011;2694;48.954;8.928;2023-05-10T00:15:10;0.60;;;0.30;;
5343;SDS011;2694;48.954;8.928;2023-05-10T00:17:37;1.00;;;0.30;;
5343;SDS011;2694;48.954;8.928;2023-05-10T00:20:04;0.60;;;0.30;;
5343;SDS011;2694;48.954;8.928;2023-05-10T00:22:32;2.65;;;0.70;;
5343;SDS011;2694;48.954;8.928;2023-05-10T00:24:59;0.80;;;0.40;;
5343;SDS011;2694;48.954;8.928;2023-05-10T00:27:26;1.10;;;0.50;;
5343;SDS011;2694;48.954;8.928;2023-05-10T00:29:53;0.70;;;0.47;;
5343;SDS011;2694;48.954;8.928;2023-05-10T00:32:21;0.50;;;0.40;;
5343;SDS011;2694;48.954;8.928;2023-05-10T00:34:48;0.60;;;0.60;;
5343;SDS011;2694;48.954;8.928;2023-05-10T00:37:15;0.90;;;0.60;;
5343;SDS011;2694;48.954;8.928;2023-05-10T00:39:42;0.80;;;0.70;;
5343;SDS011;2694;48.954;8.928;2023-05-10T00:42:09;0.90;;;0.80;;
5343;SDS011;2694;48.954;8.928;2023-05-10T00:44:36;0.90;;;0.80;;
5343;SDS011;2694;48.954;8.928;2023-05-10T00:47:03;0.95;;;0.70;;
5343;SDS011;2694;48.954;8.928;2023-05-10T00:49:32;0.80;;;0.80;;
5343;SDS011;2694;48.954;8.928;2023-05-10T00:51:59;1.30;;;0.80;;
5343;SDS011;2694;48.954;8.928;2023-05-10T00:54:27;0.60;;;0.60;;
5343;SDS011;2694;48.954;8.928;2023-05-10T00:56:54;1.10;;;0.80;;
5343;SDS011;2694;48.954;8.928;2023-05-10T00:59:22;0.80;;;0.80;;
5343;SDS011;2694;48.954;8.928;2023-05-10T01:01:49;0.80;;;0.70;;
5343;SDS011;2694;48.954;8.928;2023-05-10T01:04:16;0.90;;;0.60;;
5343;SDS011;2694;48.954;8.928;2023-05-10T01:06:46;3.20;;;0.95;;
5343;SDS011;2694;48.954;8.928;2023-05-10T01:09:13;1.80;;;0.90;;
5343;SDS011;2694;48.954;8.928;2023-05-10T01:11:40;0.80;;;0.80;;
5343;SDS011;2694;48.954;8.928;2023-05-10T01:14:07;0.80;;;0.80;;
5343;SDS011;2694;48.954;8.928;2023-05-10T01:16:35;1.70;;;1.10;;
5343;SDS011;2694;48.954;8.928;2023-05-10T01:19:04;1.03;;;0.83;;
5343;SDS011;2694;48.954;8.928;2023-05-10T01:21:38;0.75;;;0.70;;
5343;SDS011;2694;48.954;8.928;2023-05-10T01:24:20;0.90;;;0.80;;
5343;SDS011;2694;48.954;8.928;2023-05-10T01:27:16;1.00;;;0.90;;
5343;SDS011;2694;48.954;8.928;2023-05-10T01:33:16;2.50;;;1.00;;
5343;SDS011;2694;48.954;8.928;2023-05-10T01:35:47;1.77;;;1.00;;
5343;SDS011;2694;48.954;8.928;2023-05-10T01:38:22;2.43;;;1.37;;
5343;SDS011;2694;48.954;8.928;2023-05-10T01:41:00;2.60;;;1.08;;
5343;SDS011;2694;48.954;8.928;2023-05-10T01:43:36;1.00;;;0.90;;
5343;SDS011;2694;48.954;8.928;2023-05-10T01:46:09;1.30;;;1.10;;
5343;SDS011;2694;48.954;8.928;2023-05-10T01:48:44;1.25;;;1.00;;
5343;SDS011;2694;48.954;8.928;2023-05-10T01:51:14;1.20;;;0.90;;
5343;SDS011;2694;48.954;8.928;2023-05-10T01:53:46;2.20;;;1.00;;
5343;SDS011;2694;48.954;8.928;2023-05-10T01:56:15;1.10;;;1.00;;
5343;SDS011;2694;48.954;8.928;2023-05-10T01:58:43;1.30;;;1.00;;
5343;SDS011;2694;48.954;8.928;2023-05-10T02:01:13;1.60;;;1.00;;
5343;SDS011;2694;48.954;8.928;2023-05-10T02:03:42;1.20;;;1.10;;
5343;SDS011;2694;48.954;8.928;2023-05-10T02:06:10;1.95;;;1.40;;
5343;SDS011;2694;48.954;8.928;2023-05-10T02:08:40;1.45;;;0.90;;
5343;SDS011;2694;48.954;8.928;2023-05-10T02:11:10;1.80;;;0.85;;
5343;SDS011;2694;48.954;8.928;2023-05-10T02:13:39;1.70;;;1.05;;
5343;SDS011;2694;48.954;8.928;2023-05-10T02:16:08;1.20;;;1.10;;
5343;SDS011;2694;48.954;8.928;2023-05-10T02:18:36;5.88;;;1.17;;
5343;SDS011;2694;48.954;8.928;2023-05-10T02:21:06;1.38;;;1.00;;
5343;SDS011;2694;48.954;8.928;2023-05-10T02:23:34;1.30;;;1.20;;
5343;SDS011;2694;48.954;8.928;2023-05-10T02:26:03;1.30;;;1.10;;
5343;SDS011;2694;48.954;8.928;2023-05-10T02:28:32;1.80;;;1.40;;
5343;SDS011;2694;48.954;8.928;2023-05-10T02:31:02;1.40;;;1.05;;
5343;SDS011;2694;48.954;8.928;2023-05-10T02:33:31;1.50;;;1.00;;
5343;SDS011;2694;48.954;8.928;2023-05-10T02:36:00;1.40;;;1.30;;
5343;SDS011;2694;48.954;8.928;2023-05-10T02:38:30;2.00;;;1.60;;
5343;SDS011;2694;48.954;8.928;2023-05-10T02:40:58;3.40;;;1.60;;
5343;SDS011;2694;48.954;8.928;2023-05-10T02:43:26;3.30;;;1.88;;
5343;SDS011;2694;48.954;8.928;2023-05-10T02:45:56;2.50;;;2.03;;
5343;SDS011;2694;48.954;8.928;2023-05-10T02:48:23;2.55;;;2.00;;
5343;SDS011;2694;48.954;8.928;2023-05-10T02:50:51;1.90;;;1.70;;
5343;SDS011;2694;48.954;8.928;2023-05-10T02:53:22;2.15;;;1.88;;
5343;SDS011;2694;48.954;8.928;2023-05-10T02:55:57;2.70;;;2.20;;
5343;SDS011;2694;48.954;8.928;2023-05-10T02:58:25;3.22;;;2.13;;
5343;SDS011;2694;48.954;8.928;2023-05-10T03:00:53;2.88;;;2.35;;
5343;SDS011;2694;48.954;8.928;2023-05-10T03:03:20;3.20;;;2.50;;
5343;SDS011;2694;48.954;8.928;2023-05-10T03:05:47;3.23;;;2.47;;
5343;SDS011;2694;48.954;8.928;2023-05-10T03:08:14;3.22;;;2.70;;
5343;SDS011;2694;48.954;8.928;2023-05-10T03:10:47;5.47;;;2.40;;
5343;SDS011;2694;48.954;8.928;2023-05-10T03:13:24;3.35;;;2.88;;
5343;SDS011;2694;48.954;8.928;2023-05-10T03:16:03;4.00;;;3.20;;
5343;SDS011;2694;48.954;8.928;2023-05-10T03:18:36;5.10;;;3.80;;
5343;SDS011;2694;48.954;8.928;2023-05-10T03:21:08;4.50;;;3.50;;
5343;SDS011;2694;48.954;8.928;2023-05-10T03:23:40;3.92;;;3.20;;
5343;SDS011;2694;48.954;8.928;2023-05-10T03:26:09;8.15;;;3.42;;
5343;SDS011;2694;48.954;8.928;2023-05-10T03:28:40;5.35;;;3.60;;
5343;SDS011;2694;48.954;8.928;2023-05-10T03:31:07;4.57;;;3.78;;
5343;SDS011;2694;48.954;8.928;2023-05-10T03:33:35;7.57;;;3.88;;
5343;SDS011;2694;48.954;8.928;2023-05-10T03:36:11;4.72;;;3.95;;
5343;SDS011;2694;48.954;8.928;2023-05-10T03:38:38;4.60;;;3.70;;
5343;SDS011;2694;48.954;8.928;2023-05-10T03:41:05;4.63;;;3.65;;
5343;SDS011;2694;48.954;8.928;2023-05-10T03:43:32;4.95;;;3.17;;
5343;SDS011;2694;48.954;8.928;2023-05-10T03:46:02;6.27;;;3.50;;
5343;SDS011;2694;48.954;8.928;2023-05-10T03:48:29;5.05;;;3.35;;
5343;SDS011;2694;48.954;8.928;2023-05-10T03:50:56;5.63;;;3.50;;
5343;SDS011;2694;48.954;8.928;2023-05-10T03:53:23;8.38;;;3.97;;
5343;SDS011;2694;48.954;8.928;2023-05-10T03:55:50;4.07;;;3.20;;
5343;SDS011;2694;48.954;8.928;2023-05-10T03:58:17;6.07;;;2.70;;
5343;SDS011;2694;48.954;8.928;2023-05-10T04:00:44;3.47;;;2.55;;
5343;SDS011;2694;48.954;8.928;2023-05-10T04:03:12;3.10;;;2.60;;
5343;SDS011;2694;48.954;8.928;2023-05-10T04:05:39;2.80;;;2.40;;
5343;SDS011;2694;48.954;8.928;2023-05-10T04:08:06;2.33;;;2.13;;
5343;SDS011;2694;48.954;8.928;2023-05-10T04:10:34;2.40;;;1.90;;
5343;SDS011;2694;48.954;8.928;2023-05-10T04:13:01;3.00;;;2.22;;
5343;SDS011;2694;48.954;8.928;2023-05-10T04:15:28;4.13;;;2.40;;
5343;SDS011;2694;48.954;8.928;2023-05-10T04:17:55;3.30;;;1.90;;
5343;SDS011;2694;48.954;8.928;2023-05-10T04:20:23;2.30;;;1.83;;
5343;SDS011;2694;48.954;8.928;2023-05-10T04:22:52;3.90;;;1.80;;
5343;SDS011;2694;48.954;8.928;2023-05-10T04:25:19;3.70;;;1.73;;
5343;SDS011;2694;48.954;8.928;2023-05-10T04:27:46;2.42;;;1.70;;
5343;SDS011;2694;48.954;8.928;2023-05-10T04:30:13;3.25;;;1.67;;
5343;SDS011;2694;48.954;8.928;2023-05-10T04:32:40;3.90;;;2.28;;
5343;SDS011;2694;48.954;8.928;2023-05-10T04:35:07;5.00;;;2.53;;
5343;SDS011;2694;48.954;8.928;2023-05-10T04:37:37;3.83;;;2.80;;
5343;SDS011;2694;48.954;8.928;2023-05-10T04:40:04;6.38;;;3.20;;
5343;SDS011;2694;48.954;8.928;2023-05-10T04:42:32;4.30;;;3.47;;
5343;SDS011;2694;48.954;8.928;2023-05-10T04:44:59;5.57;;;3.10;;
5343;SDS011;2694;48.954;8.928;2023-05-10T04:47:26;5.10;;;3.57;;
5343;SDS011;2694;48.954;8.928;2023-05-10T04:49:53;5.25;;;3.17;;
5343;SDS011;2694;48.954;8.928;2023-05-10T04:52:20;3.80;;;2.70;;
5343;SDS011;2694;48.954;8.928;2023-05-10T04:54:48;4.40;;;3.17;;
5343;SDS011;2694;48.954;8.928;2023-05-10T04:57:15;3.60;;;2.50;;
5343;SDS011;2694;48.954;8.928;2023-05-10T04:59:42;4.87;;;2.57;;
5343;SDS011;2694;48.954;8.928;2023-05-10T05:02:09;3.78;;;2.78;;
5343;SDS011;2694;48.954;8.928;2023-05-10T05:04:36;4.45;;;2.60;;
5343;SDS011;2694;48.954;8.928;2023-05-10T05:07:03;13.57;;;7.40;;
5343;SDS011;2694;48.954;8.928;2023-05-10T05:09:31;3.10;;;2.70;;
5343;SDS011;2694;48.954;8.928;2023-05-10T05:11:59;3.80;;;2.50;;
5343;SDS011;2694;48.954;8.928;2023-05-10T05:14:26;5.35;;;2.63;;
5343;SDS011;2694;48.954;8.928;2023-05-10T05:16:53;3.47;;;2.10;;
5343;SDS011;2694;48.954;8.928;2023-05-10T05:19:20;4.20;;;2.60;;
5343;SDS011;2694;48.954;8.928;2023-05-10T05:21:47;2.63;;;1.90;;
5343;SDS011;2694;48.954;8.928;2023-05-10T05:24:14;3.25;;;2.25;;
5343;SDS011;2694;48.954;8.928;2023-05-10T05:26:41;3.20;;;2.35;;
5343;SDS011;2694;48.954;8.928;2023-05-10T05:29:10;3.17;;;2.60;;
5343;SDS011;2694;48.954;8.928;2023-05-10T05:31:37;4.85;;;3.05;;
5343;SDS011;2694;48.954;8.928;2023-05-10T05:34:04;4.00;;;2.90;;
5343;SDS011;2694;48.954;8.928;2023-05-10T05:36:31;6.85;;;2.72;;
5343;SDS011;2694;48.954;8.928;2023-05-10T05:38:58;4.20;;;2.80;;
5343;SDS011;2694;48.954;8.928;2023-05-10T05:41:25;4.75;;;2.92;;
5343;SDS011;2694;48.954;8.928;2023-05-10T05:43:52;4.87;;;2.40;;
5343;SDS011;2694;48.954;8.928;2023-05-10T05:46:20;6.75;;;3.10;;
5343;SDS011;2694;48.954;8.928;2023-05-10T05:48:47;3.60;;;2.70;;
5343;SDS011;2694;48.954;8.928;2023-05-10T05:51:14;4.22;;;2.60;;
5343;SDS011;2694;48.954;8.928;2023-05-10T05:53:41;5.03;;;2.85;;
5343;SDS011;2694;48.954;8.928;2023-05-10T05:56:08;6.15;;;2.60;;
5343;SDS011;2694;48.954;8.928;2023-05-10T05:58:35;4.80;;;2.70;;
5343;SDS011;2694;48.954;8.928;2023-05-10T06:01:02;4.45;;;2.50;;
5343;SDS011;2694;48.954;8.928;2023-05-10T06:03:30;5.20;;;2.45;;
5343;SDS011;2694;48.954;8.928;2023-05-10T06:05:57;3.10;;;2.20;;
5343;SDS011;2694;48.954;8.928;2023-05-10T06:08:24;6.43;;;2.40;;
5343;SDS011;2694;48.954;8.928;2023-05-10T06:10:51;3.13;;;2.00;;
5343;SDS011;2694;48.954;8.928;2023-05-10T06:13:18;4.70;;;2.17;;
5343;SDS011;2694;48.954;8.928;2023-05-10T06:15:46;3.28;;;2.00;;
5343;SDS011;2694;48.954;8.928;2023-05-10T06:18:13;3.00;;;1.85;;
5343;SDS011;2694;48.954;8.928;2023-05-10T06:20:42;3.53;;;1.80;;
5343;SDS011;2694;48.954;8.928;2023-05-10T06:23:09;3.10;;;1.85;;
5343;SDS011;2694;48.954;8.928;2023-05-10T06:25:36;2.20;;;1.75;;
5343;SDS011;2694;48.954;8.928;2023-05-10T06:28:03;2.95;;;1.90;;
5343;SDS011;2694;48.954;8.928;2023-05-10T06:30:30;4.82;;;1.83;;
5343;SDS011;2694;48.954;8.928;2023-05-10T06:32:57;3.20;;;1.73;;
5343;SDS011;2694;48.954;8.928;2023-05-10T06:35:24;2.20;;;1.63;;
5343;SDS011;2694;48.954;8.928;2023-05-10T06:37:52;5.90;;;2.00;;
5343;SDS011;2694;48.954;8.928;2023-05-10T06:40:19;2.80;;;1.60;;
5343;SDS011;2694;48.954;8.928;2023-05-10T06:42:46;4.70;;;1.60;;
5343;SDS011;2694;48.954;8.928;2023-05-10T06:45:13;4.70;;;1.67;;
5343;SDS011;2694;48.954;8.928;2023-05-10T06:47:41;2.72;;;1.60;;
5343;SDS011;2694;48.954;8.928;2023-05-10T06:50:08;2.45;;;1.20;;
5343;SDS011;2694;48.954;8.928;2023-05-10T06:52:36;3.30;;;1.10;;
5343;SDS011;2694;48.954;8.928;2023-05-10T06:55:05;5.90;;;1.37;;
5343;SDS011;2694;48.954;8.928;2023-05-10T06:57:33;3.95;;;1.50;;
5343;SDS011;2694;48.954;8.928;2023-05-10T07:00:00;2.35;;;1.40;;
5343;SDS011;2694;48.954;8.928;2023-05-10T07:02:29;2.75;;;1.30;;
5343;SDS011;2694;48.954;8.928;2023-05-10T07:04:56;3.05;;;0.95;;
5343;SDS011;2694;48.954;8.928;2023-05-10T07:07:23;1.70;;;1.20;;
5343;SDS011;2694;48.954;8.928;2023-05-10T07:09:51;2.05;;;1.00;;
5343;SDS011;2694;48.954;8.928;2023-05-10T07:12:19;1.45;;;1.10;;
5343;SDS011;2694;48.954;8.928;2023-05-10T07:14:46;3.67;;;0.90;;
5343;SDS011;2694;48.954;8.928;2023-05-10T07:17:13;2.00;;;0.73;;
5343;SDS011;2694;48.954;8.928;2023-05-10T07:19:40;1.10;;;0.70;;
5343;SDS011;2694;48.954;8.928;2023-05-10T07:22:07;4.60;;;0.80;;
5343;SDS011;2694;48.954;8.928;2023-05-10T07:24:34;2.33;;;0.90;;
5343;SDS011;2694;48.954;8.928;2023-05-10T07:27:01;2.17;;;0.68;;
5343;SDS011;2694;48.954;8.928;2023-05-10T07:29:30;1.10;;;0.52;;
5343;SDS011;2694;48.954;8.928;2023-05-10T07:31:57;5.40;;;0.60;;
5343;SDS011;2694;48.954;8.928;2023-05-10T07:34:24;2.00;;;0.52;;
5343;SDS011;2694;48.954;8.928;2023-05-10T07:36:51;3.67;;;0.50;;
5343;SDS011;2694;48.954;8.928;2023-05-10T07:39:19;1.60;;;0.60;;
5343;SDS011;2694;48.954;8.928;2023-05-10T07:41:46;2.20;;;0.80;;
5343;SDS011;2694;48.954;8.928;2023-05-10T07:44:14;1.15;;;0.70;;
5343;SDS011;2694;48.954;8.928;2023-05-10T07:46:44;2.57;;;0.70;;
5343;SDS011;2694;48.954;8.928;2023-05-10T07:49:12;1.90;;;0.40;;
5343;SDS011;2694;48.954;8.928;2023-05-10T07:51:39;1.90;;;0.50;;
5343;SDS011;2694;48.954;8.928;2023-05-10T07:54:07;0.90;;;0.50;;
5343;SDS011;2694;48.954;8.928;2023-05-10T07:56:34;1.40;;;0.40;;
5343;SDS011;2694;48.954;8.928;2023-05-10T07:59:01;1.40;;;0.40;;
5343;SDS011;2694;48.954;8.928;2023-05-10T08:01:30;2.00;;;0.80;;
5343;SDS011;2694;48.954;8.928;2023-05-10T08:04:00;1.67;;;0.60;;
5343;SDS011;2694;48.954;8.928;2023-05-10T08:06:27;0.80;;;0.40;;
5343;SDS011;2694;48.954;8.928;2023-05-10T08:08:55;1.92;;;0.60;;
5343;SDS011;2694;48.954;8.928;2023-05-10T08:11:24;1.33;;;0.60;;
5343;SDS011;2694;48.954;8.928;2023-05-10T08:13:52;1.45;;;0.50;;
5343;SDS011;2694;48.954;8.928;2023-05-10T08:16:20;1.40;;;0.50;;
5343;SDS011;2694;48.954;8.928;2023-05-10T08:18:47;1.60;;;0.60;;
5343;SDS011;2694;48.954;8.928;2023-05-10T08:21:17;1.05;;;0.60;;
5343;SDS011;2694;48.954;8.928;2023-05-10T08:23:44;4.15;;;0.70;;
5343;SDS011;2694;48.954;8.928;2023-05-10T08:26:11;3.20;;;0.50;;
5343;SDS011;2694;48.954;8.928;2023-05-10T08:28:38;0.80;;;0.40;;
5343;SDS011;2694;48.954;8.928;2023-05-10T08:31:05;1.38;;;0.40;;
5343;SDS011;2694;48.954;8.928;2023-05-10T08:33:32;2.20;;;0.50;;
5343;SDS011;2694;48.954;8.928;2023-05-10T08:35:59;3.20;;;0.40;;
5343;SDS011;2694;48.954;8.928;2023-05-10T08:38:27;1.90;;;0.40;;
5343;SDS011;2694;48.954;8.928;2023-05-10T08:40:54;0.93;;;0.40;;
5343;SDS011;2694;48.954;8.928;2023-05-10T08:43:23;2.20;;;0.40;;
5343;SDS011;2694;48.954;8.928;2023-05-10T08:45:53;0.90;;;0.40;;
5343;SDS011;2694;48.954;8.928;2023-05-10T08:48:22;1.63;;;0.40;;
5343;SDS011;2694;48.954;8.928;2023-05-10T08:50:52;1.00;;;0.50;;
5343;SDS011;2694;48.954;8.928;2023-05-10T08:53:20;2.55;;;0.80;;
5343;SDS011;2694;48.954;8.928;2023-05-10T08:55:51;2.95;;;0.70;;
5343;SDS011;2694;48.954;8.928;2023-05-10T08:58:19;1.50;;;0.60;;
5343;SDS011;2694;48.954;8.928;2023-05-10T09:00:48;1.40;;;0.50;;
5343;SDS011;2694;48.954;8.928;2023-05-10T09:03:16;1.40;;;0.30;;
5343;SDS011;2694;48.954;8.928;2023-05-10T09:05:44;2.22;;;0.60;;
5343;SDS011;2694;48.954;8.928;2023-05-10T09:08:11;2.40;;;0.70;;
5343;SDS011;2694;48.954;8.928;2023-05-10T09:10:38;0.60;;;0.30;;
5343;SDS011;2694;48.954;8.928;2023-05-10T09:13:09;3.13;;;0.50;;
5343;SDS011;2694;48.954;8.928;2023-05-10T09:15:37;1.15;;;0.30;;
5343;SDS011;2694;48.954;8.928;2023-05-10T09:18:04;2.25;;;0.35;;
5343;SDS011;2694;48.954;8.928;2023-05-10T09:20:32;2.80;;;0.60;;
5343;SDS011;2694;48.954;8.928;2023-05-10T09:22:59;1.00;;;0.30;;
5343;SDS011;2694;48.954;8.928;2023-05-10T09:25:26;1.23;;;0.50;;
5343;SDS011;2694;48.954;8.928;2023-05-10T09:27:53;1.35;;;0.50;;
5343;SDS011;2694;48.954;8.928;2023-05-10T09:30:24;1.85;;;0.50;;
5343;SDS011;2694;48.954;8.928;2023-05-10T09:32:53;2.90;;;0.60;;
5343;SDS011;2694;48.954;8.928;2023-05-10T09:35:22;1.25;;;0.40;;
5343;SDS011;2694;48.954;8.928;2023-05-10T09:37:51;1.60;;;0.50;;
5343;SDS011;2694;48.954;8.928;2023-05-10T09:40:20;2.70;;;0.50;;
5343;SDS011;2694;48.954;8.928;2023-05-10T09:42:51;2.10;;;0.50;;
5343;SDS011;2694;48.954;8.928;2023-05-10T09:45:19;0.85;;;0.40;;
5343;SDS011;2694;48.954;8.928;2023-05-10T09:47:48;3.20;;;0.50;;
5343;SDS011;2694;48.954;8.928;2023-05-10T09:50:15;1.52;;;0.50;;
5343;SDS011;2694;48.954;8.928;2023-05-10T09:52:47;1.40;;;0.40;;
5343;SDS011;2694;48.954;8.928;2023-05-10T09:55:15;0.70;;;0.38;;
5343;SDS011;2694;48.954;8.928;2023-05-10T09:57:45;1.80;;;0.63;;
5343;SDS011;2694;48.954;8.928;2023-05-10T10:00:16;2.00;;;0.30;;
5343;SDS011;2694;48.954;8.928;2023-05-10T10:02:45;2.22;;;0.50;;
5343;SDS011;2694;48.954;8.928;2023-05-10T10:05:20;1.70;;;0.47;;
5343;SDS011;2694;48.954;8.928;2023-05-10T10:07:47;1.10;;;0.40;;
5343;SDS011;2694;48.954;8.928;2023-05-10T10:10:15;1.20;;;0.40;;
5343;SDS011;2694;48.954;8.928;2023-05-10T10:12:42;1.80;;;0.30;;
5343;SDS011;2694;48.954;8.928;2023-05-10T10:15:10;1.08;;;0.50;;
5343;SDS011;2694;48.954;8.928;2023-05-10T10:17:37;2.15;;;0.40;;
5343;SDS011;2694;48.954;8.928;2023-05-10T10:20:07;3.70;;;0.40;;
5343;SDS011;2694;48.954;8.928;2023-05-10T10:22:36;2.00;;;0.30;;
5343;SDS011;2694;48.954;8.928;2023-05-10T10:25:04;3.60;;;0.50;;
5343;SDS011;2694;48.954;8.928;2023-05-10T10:27:34;0.73;;;0.40;;
5343;SDS011;2694;48.954;8.928;2023-05-10T10:30:11;1.02;;;0.30;;
5343;SDS011;2694;48.954;8.928;2023-05-10T10:32:59;0.85;;;0.30;;
5343;SDS011;2694;48.954;8.928;2023-05-10T10:35:38;1.63;;;0.40;;
5343;SDS011;2694;48.954;8.928;2023-05-10T10:38:07;2.60;;;0.50;;
5343;SDS011;2694;48.954;8.928;2023-05-10T10:40:34;1.60;;;0.60;;
5343;SDS011;2694;48.954;8.928;2023-05-10T10:46:09;1.20;;;0.50;;
5343;SDS011;2694;48.954;8.928;2023-05-10T10:48:38;1.83;;;0.52;;
5343;SDS011;2694;48.954;8.928;2023-05-10T10:51:07;3.97;;;0.70;;
5343;SDS011;2694;48.954;8.928;2023-05-10T10:53:34;3.28;;;0.60;;
5343;SDS011;2694;48.954;8.928;2023-05-10T10:56:05;2.00;;;0.70;;
5343;SDS011;2694;48.954;8.928;2023-05-10T10:58:36;1.45;;;0.52;;
5343;SDS011;2694;48.954;8.928;2023-05-10T11:01:11;2.80;;;0.50;;
5343;SDS011;2694;48.954;8.928;2023-05-10T11:03:41;2.97;;;0.50;;
5343;SDS011;2694;48.954;8.928;2023-05-10T11:06:32;1.40;;;0.50;;
5343;SDS011;2694;48.954;8.928;2023-05-10T11:09:01;2.17;;;0.60;;
5343;SDS011;2694;48.954;8.928;2023-05-10T11:11:32;1.10;;;0.57;;
5343;SDS011;2694;48.954;8.928;2023-05-10T11:14:02;2.90;;;0.50;;
5343;SDS011;2694;48.954;8.928;2023-05-10T11:16:30;1.52;;;0.50;;
5343;SDS011;2694;48.954;8.928;2023-05-10T11:19:07;1.80;;;0.70;;
5343;SDS011;2694;48.954;8.928;2023-05-10T11:21:45;1.30;;;0.60;;
5343;SDS011;2694;48.954;8.928;2023-05-10T11:24:14;2.67;;;0.70;;
5343;SDS011;2694;48.954;8.928;2023-05-10T11:26:42;1.80;;;0.87;;
5343;SDS011;2694;48.954;8.928;2023-05-10T11:29:09;3.00;;;0.80;;
5343;SDS011;2694;48.954;8.928;2023-05-10T11:31:41;1.10;;;0.70;;
5343;SDS011;2694;48.954;8.928;2023-05-10T11:34:10;4.88;;;0.93;;
5343;SDS011;2694;48.954;8.928;2023-05-10T11:36:39;1.57;;;0.90;;
5343;SDS011;2694;48.954;8.928;2023-05-10T11:39:07;3.05;;;1.40;;
5343;SDS011;2694;48.954;8.928;2023-05-10T11:41:36;5.80;;;1.00;;
5343;SDS011;2694;48.954;8.928;2023-05-10T11:44:03;3.38;;;1.02;;
5343;SDS011;2694;48.954;8.928;2023-05-10T11:46:30;3.42;;;0.80;;
5343;SDS011;2694;48.954;8.928;2023-05-10T11:48:58;3.10;;;0.93;;
5343;SDS011;2694;48.954;8.928;2023-05-10T11:51:29;6.03;;;1.23;;
5343;SDS011;2694;48.954;8.928;2023-05-10T11:53:59;2.10;;;1.20;;
5343;SDS011;2694;48.954;8.928;2023-05-10T11:56:27;1.63;;;0.80;;
5343;SDS011;2694;48.954;8.928;2023-05-10T11:58:55;1.60;;;0.70;;
5343;SDS011;2694;48.954;8.928;2023-05-10T12:01:23;2.60;;;0.65;;
5343;SDS011;2694;48.954;8.928;2023-05-10T12:03:51;2.20;;;1.00;;
5343;SDS011;2694;48.954;8.928;2023-05-10T12:06:25;2.72;;;0.75;;
5343;SDS011;2694;48.954;8.928;2023-05-10T12:08:53;1.40;;;0.50;;
5343;SDS011;2694;48.954;8.928;2023-05-10T12:11:24;5.13;;;0.80;;
5343;SDS011;2694;48.954;8.928;2023-05-10T12:13:53;3.30;;;0.70;;
5343;SDS011;2694;48.954;8.928;2023-05-10T12:16:22;3.92;;;0.70;;
5343;SDS011;2694;48.954;8.928;2023-05-10T12:18:50;2.90;;;0.50;;
5343;SDS011;2694;48.954;8.928;2023-05-10T12:21:18;1.25;;;0.40;;
5343;SDS011;2694;48.954;8.928;2023-05-10T12:23:46;1.30;;;0.60;;
5343;SDS011;2694;48.954;8.928;2023-05-10T12:26:14;6.40;;;0.50;;
5343;SDS011;2694;48.954;8.928;2023-05-10T12:28:41;6.25;;;0.50;;
5343;SDS011;2694;48.954;8.928;2023-05-10T12:31:10;1.02;;;0.32;;
5343;SDS011;2694;48.954;8.928;2023-05-10T12:33:37;4.65;;;0.80;;
5343;SDS011;2694;48.954;8.928;2023-05-10T12:36:08;1.40;;;0.40;;
5343;SDS011;2694;48.954;8.928;2023-05-10T12:38:35;3.45;;;0.80;;
5343;SDS011;2694;48.954;8.928;2023-05-10T12:41:04;4.07;;;0.50;;
5343;SDS011;2694;48.954;8.928;2023-05-10T12:43:32;2.50;;;0.70;;
5343;SDS011;2694;48.954;8.928;2023-05-10T12:46:04;3.70;;;0.70;;
5343;SDS011;2694;48.954;8.928;2023-05-10T12:48:34;3.70;;;0.90;;
5343;SDS011;2694;48.954;8.928;2023-05-10T12:51:01;3.08;;;0.60;;
5343;SDS011;2694;48.954;8.928;2023-05-10T12:53:28;4.72;;;0.60;;
5343;SDS011;2694;48.954;8.928;2023-05-10T12:55:56;3.55;;;0.43;;
5343;SDS011;2694;48.954;8.928;2023-05-10T12:58:23;1.23;;;0.40;;
5343;SDS011;2694;48.954;8.928;2023-05-10T13:00:50;1.83;;;0.50;;
5343;SDS011;2694;48.954;8.928;2023-05-10T13:03:17;1.38;;;0.40;;
5343;SDS011;2694;48.954;8.928;2023-05-10T13:05:46;3.60;;;0.70;;
5343;SDS011;2694;48.954;8.928;2023-05-10T13:08:13;2.30;;;0.50;;
5343;SDS011;2694;48.954;8.928;2023-05-10T13:10:40;1.85;;;0.80;;
5343;SDS011;2694;48.954;8.928;2023-05-10T13:13:07;1.13;;;0.43;;
5343;SDS011;2694;48.954;8.928;2023-05-10T13:15:35;1.90;;;0.40;;
5343;SDS011;2694;48.954;8.928;2023-05-10T13:18:05;1.40;;;0.50;;
5343;SDS011;2694;48.954;8.928;2023-05-10T13:20:33;2.40;;;0.60;;
5343;SDS011;2694;48.954;8.928;2023-05-10T13:23:02;1.90;;;0.40;;
5343;SDS011;2694;48.954;8.928;2023-05-10T13:25:30;2.55;;;0.70;;
5343;SDS011;2694;48.954;8.928;2023-05-10T13:27:57;2.72;;;0.80;;
5343;SDS011;2694;48.954;8.928;2023-05-10T13:30:24;2.42;;;0.40;;
5343;SDS011;2694;48.954;8.928;2023-05-10T13:32:51;0.80;;;0.30;;
5343;SDS011;2694;48.954;8.928;2023-05-10T13:35:18;1.60;;;0.50;;
5343;SDS011;2694;48.954;8.928;2023-05-10T13:37:45;0.90;;;0.50;;
5343;SDS011;2694;48.954;8.928;2023-05-10T13:40:13;2.05;;;0.50;;
5343;SDS011;2694;48.954;8.928;2023-05-10T13:42:42;2.92;;;0.40;;
5343;SDS011;2694;48.954;8.928;2023-05-10T13:45:09;3.67;;;0.50;;
5343;SDS011;2694;48.954;8.928;2023-05-10T13:47:38;1.40;;;0.50;;
5343;SDS011;2694;48.954;8.928;2023-05-10T13:50:05;4.18;;;0.60;;
5343;SDS011;2694;48.954;8.928;2023-05-10T13:52:33;3.03;;;0.40;;
5343;SDS011;2694;48.954;8.928;2023-05-10T13:55:00;1.33;;;0.43;;
5343;SDS011;2694;48.954;8.928;2023-05-10T13:57:29;1.05;;;0.40;;
5343;SDS011;2694;48.954;8.928;2023-05-10T13:59:56;2.25;;;0.38;;
5343;SDS011;2694;48.954;8.928;2023-05-10T14:02:23;3.50;;;0.60;;
5343;SDS011;2694;48.954;8.928;2023-05-10T14:04:52;4.22;;;0.50;;
5343;SDS011;2694;48.954;8.928;2023-05-10T14:07:19;1.47;;;0.60;;
5343;SDS011;2694;48.954;8.928;2023-05-10T14:09:46;2.40;;;0.40;;
5343;SDS011;2694;48.954;8.928;2023-05-10T14:12:13;1.00;;;0.35;;
5343;SDS011;2694;48.954;8.928;2023-05-10T14:14:42;0.85;;;0.40;;
5343;SDS011;2694;48.954;8.928;2023-05-10T14:17:10;2.70;;;0.70;;
5343;SDS011;2694;48.954;8.928;2023-05-10T14:19:37;1.40;;;0.40;;
5343;SDS011;2694;48.954;8.928;2023-05-10T14:22:04;1.40;;;0.45;;
5343;SDS011;2694;48.954;8.928;2023-05-10T14:24:31;0.70;;;0.30;;
5343;SDS011;2694;48.954;8.928;2023-05-10T14:26:58;1.70;;;0.40;;
5343;SDS011;2694;48.954;8.928;2023-05-10T14:29:25;1.98;;;0.50;;
5343;SDS011;2694;48.954;8.928;2023-05-10T14:31:54;1.70;;;0.50;;
5343;SDS011;2694;48.954;8.928;2023-05-10T14:34:21;3.38;;;0.50;;
5343;SDS011;2694;48.954;8.928;2023-05-10T14:36:48;1.98;;;0.40;;
5343;SDS011;2694;48.954;8.928;2023-05-10T14:39:15;2.20;;;0.50;;
5343;SDS011;2694;48.954;8.928;2023-05-10T14:41:42;4.10;;;0.60;;
5343;SDS011;2694;48.954;8.928;2023-05-10T14:44:10;1.20;;;0.40;;
5343;SDS011;2694;48.954;8.928;2023-05-10T14:46:38;3.00;;;0.50;;
5343;SDS011;2694;48.954;8.928;2023-05-10T14:49:06;1.88;;;0.60;;
5343;SDS011;2694;48.954;8.928;2023-05-10T14:51:33;3.70;;;0.50;;
5343;SDS011;2694;48.954;8.928;2023-05-10T14:54:01;2.97;;;0.50;;
5343;SDS011;2694;48.954;8.928;2023-05-10T14:56:28;2.53;;;0.50;;
5343;SDS011;2694;48.954;8.928;2023-05-10T14:58:55;1.10;;;0.40;;
5343;SDS011;2694;48.954;8.928;2023-05-10T15:01:23;2.80;;;0.50;;
5343;SDS011;2694;48.954;8.928;2023-05-10T15:03:50;1.50;;;0.60;;
5343;SDS011;2694;48.954;8.928;2023-05-10T15:06:20;2.53;;;0.40;;
5343;SDS011;2694;48.954;8.928;2023-05-10T15:08:50;3.00;;;0.40;;
5343;SDS011;2694;48.954;8.928;2023-05-10T15:11:17;1.50;;;0.60;;
5343;SDS011;2694;48.954;8.928;2023-05-10T15:13:46;2.15;;;0.70;;
5343;SDS011;2694;48.954;8.928;2023-05-10T15:16:13;2.20;;;0.30;;
5343;SDS011;2694;48.954;8.928;2023-05-10T15:18:40;3.10;;;0.50;;
5343;SDS011;2694;48.954;8.928;2023-05-10T15:21:07;1.92;;;0.60;;
5343;SDS011;2694;48.954;8.928;2023-05-10T15:23:35;3.45;;;0.70;;
5343;SDS011;2694;48.954;8.928;2023-05-10T15:26:02;2.95;;;0.60;;
5343;SDS011;2694;48.954;8.928;2023-05-10T15:28:30;8.25;;;3.53;;